Time;durP1;ratioP1;P1;durP2;ratioP2;P2;SDS_P1;SDS_P2;PMS_P1;PMS_P2;Temp;Humidity;BMP_temperature;BMP_pressure;BME280_temperature;BME280_humidity;BME280_pressure;Samples;Min_cycle;Max_cycle;Signal;HPM_P1;HPM_P2
2021/08/12 00:01:45;;;;;;;24.42;18.70;;;15.50;99.90;;;;;;5111725;28;20490;-83
2021/08/12 00:04:17;;;;;;;24.00;16.80;;;15.50;99.90;;;;;;5128965;28;20400;-83
2021/08/12 00:06:45;;;;;;;20.38;16.38;;;15.50;99.90;;;;;;5096360;28;20035;-83
2021/08/12 00:09:12;;;;;;;20.52;16.80;;;15.50;99.90;;;;;;5129053;28;20036;-83
2021/08/12 00:11:39;;;;;;;19.63;15.43;;;15.40;99.90;;;;;;5111777;28;20043;-84
2021/08/12 00:14:06;;;;;;;21.33;16.58;;;15.40;99.90;;;;;;5112092;28;20416;-83
2021/08/12 00:16:33;;;;;;;21.77;16.52;;;15.40;99.90;;;;;;5128288;28;20465;-83
2021/08/12 00:19:01;;;;;;;18.77;14.75;;;15.40;99.90;;;;;;5128496;28;20032;-83
2021/08/12 00:21:27;;;;;;;19.30;15.10;;;15.30;99.90;;;;;;5129912;28;20043;-83
2021/08/12 00:23:56;;;;;;;21.52;15.30;;;15.30;99.90;;;;;;5110981;28;20392;-83
2021/08/12 00:26:23;;;;;;;19.23;14.40;;;15.30;99.90;;;;;;5128372;28;20070;-83
2021/08/12 00:28:50;;;;;;;21.00;14.10;;;15.30;99.90;;;;;;5128000;28;20472;-83
2021/08/12 00:31:17;;;;;;;20.58;15.25;;;15.20;99.90;;;;;;5094936;28;20492;-83
2021/08/12 00:33:43;;;;;;;18.58;15.05;;;15.20;99.90;;;;;;5094602;28;20048;-83
2021/08/12 00:36:10;;;;;;;17.52;13.70;;;15.20;99.90;;;;;;5128231;28;20093;-84
2021/08/12 00:38:37;;;;;;;16.70;12.77;;;15.20;99.90;;;;;;5094893;28;20063;-83
2021/08/12 00:41:04;;;;;;;15.00;11.48;;;15.10;99.90;;;;;;5110899;28;20063;-84
2021/08/12 00:43:31;;;;;;;16.67;11.40;;;15.10;99.90;;;;;;5111267;28;20048;-83
2021/08/12 00:46:00;;;;;;;18.25;13.90;;;15.10;99.90;;;;;;5094907;28;20040;-84
2021/08/12 00:48:27;;;;;;;17.95;14.63;;;15.10;99.90;;;;;;5128010;28;20097;-83
2021/08/12 00:50:53;;;;;;;13.50;10.20;;;15.10;99.90;;;;;;5094167;28;20453;-85
2021/08/12 00:53:20;;;;;;;18.88;13.85;;;15.10;99.90;;;;;;5094360;28;20031;-84
2021/08/12 00:55:48;;;;;;;16.65;13.02;;;15.10;99.90;;;;;;5110619;28;20048;-85
2021/08/12 00:58:15;;;;;;;28.48;11.23;;;15.10;99.90;;;;;;5110989;28;20093;-84
2021/08/12 01:00:43;;;;;;;16.02;12.80;;;15.00;99.90;;;;;;5129216;28;20038;-84
2021/08/12 01:03:16;;;;;;;15.90;11.60;;;14.90;99.90;;;;;;5111231;28;20476;-84
2021/08/12 01:05:54;;;;;;;13.60;9.48;;;15.00;99.90;;;;;;5127696;28;20092;-83
2021/08/12 01:08:46;;;;;;;15.48;11.18;;;15.00;99.90;;;;;;5127561;28;20400;-83
2021/08/12 01:11:12;;;;;;;15.35;10.43;;;15.00;99.90;;;;;;5110801;28;20093;-83
2021/08/12 01:14:10;;;;;;;16.13;11.70;;;15.00;99.90;;;;;;5127560;28;20036;-83
2021/08/12 01:16:42;;;;;;;13.57;10.63;;;15.00;99.90;;;;;;5127672;28;20032;-83
2021/08/12 01:19:44;;;;;;;15.80;11.10;;;15.00;99.90;;;;;;5127235;28;20408;-83
2021/08/12 01:22:13;;;;;;;13.85;9.90;;;15.00;99.90;;;;;;5125357;28;20116;-84
2021/08/12 01:24:44;;;;;;;12.07;9.40;;;15.00;99.90;;;;;;5110858;28;20073;-83
2021/08/12 01:27:13;;;;;;;13.88;8.80;;;15.00;99.90;;;;;;5126840;28;20472;-83
2021/08/12 01:29:58;;;;;;;11.60;8.77;;;15.00;99.90;;;;;;5127210;28;20036;-82
2021/08/12 01:32:28;;;;;;;10.68;8.05;;;15.00;99.90;;;;;;5127353;28;20122;-82
2021/08/12 01:35:08;;;;;;;13.88;8.48;;;15.00;99.90;;;;;;5126946;28;20464;-84
2021/08/12 01:37:47;;;;;;;10.02;7.68;;;14.90;99.90;;;;;;5128421;28;20043;-83
2021/08/12 01:40:16;;;;;;;10.35;7.55;;;14.90;99.90;;;;;;5126926;28;20032;-83
2021/08/12 01:42:45;;;;;;;9.70;7.78;;;14.90;99.90;;;;;;5110368;28;20472;-82
2021/08/12 01:45:15;;;;;;;9.75;7.22;;;14.80;99.90;;;;;;5110012;28;20066;-83
2021/08/12 01:47:44;;;;;;;9.77;6.57;;;14.80;99.90;;;;;;5128342;28;20036;-83
2021/08/12 01:50:14;;;;;;;9.70;6.43;;;14.80;99.90;;;;;;5093212;28;20094;-83
2021/08/12 01:52:44;;;;;;;10.02;6.80;;;14.80;99.90;;;;;;5094233;28;20162;-83
2021/08/12 01:55:12;;;;;;;8.70;6.03;;;14.80;99.90;;;;;;5126768;28;20036;-83
2021/08/12 01:57:40;;;;;;;8.93;6.00;;;14.70;99.90;;;;;;5128090;28;20050;-83
2021/08/12 02:00:10;;;;;;;10.02;6.25;;;14.70;99.90;;;;;;5110002;28;20487;-83
2021/08/12 02:02:37;;;;;;;8.13;5.25;;;14.70;99.90;;;;;;5127032;28;20036;-83
2021/08/12 02:05:05;;;;;;;9.38;6.40;;;14.70;99.90;;;;;;5126498;28;20036;-84
2021/08/12 02:07:32;;;;;;;8.63;6.40;;;14.70;99.90;;;;;;5110107;28;20083;-84
2021/08/12 02:09:59;;;;;;;6.65;3.97;;;14.60;99.90;;;;;;5093077;28;20047;-84
2021/08/12 02:12:26;;;;;;;5.30;3.65;;;14.60;99.90;;;;;;5110049;28;20400;-84
2021/08/12 02:14:52;;;;;;;8.10;3.30;;;14.60;99.90;;;;;;5093373;28;20048;-83
2021/08/12 02:17:19;;;;;;;5.45;3.30;;;14.60;99.90;;;;;;5093278;28;20040;-84
2021/08/12 02:19:47;;;;;;;6.03;3.03;;;14.60;99.90;;;;;;5110188;28;20093;-84
2021/08/12 02:22:21;;;;;;;5.53;3.30;;;14.60;99.90;;;;;;5109530;28;20113;-84
2021/08/12 02:24:52;;;;;;;5.50;3.05;;;14.50;99.90;;;;;;5126865;28;20597;-83
2021/08/12 02:27:21;;;;;;;5.30;2.80;;;14.50;99.90;;;;;;5126377;28;20121;-83
2021/08/12 02:29:50;;;;;;;5.07;2.28;;;14.50;99.90;;;;;;5109894;28;20071;-84
2021/08/12 02:32:18;;;;;;;3.20;1.80;;;14.50;99.90;;;;;;5093071;28;20048;-84
2021/08/12 02:34:45;;;;;;;2.50;1.40;;;14.40;99.90;;;;;;5110010;28;20043;-83
2021/08/12 02:37:15;;;;;;;2.70;1.40;;;14.40;99.90;;;;;;5127550;28;20039;-83
2021/08/12 02:39:43;;;;;;;3.30;1.45;;;14.40;99.90;;;;;;5128734;28;20040;-83
2021/08/12 02:42:12;;;;;;;2.05;1.30;;;14.40;99.90;;;;;;5113556;28;20040;-83
2021/08/12 02:44:41;;;;;;;1.58;0.85;;;14.30;99.90;;;;;;5113388;28;20403;-82
2021/08/12 02:47:09;;;;;;;2.40;1.27;;;14.30;99.90;;;;;;5113367;28;20042;-83
2021/08/12 02:49:40;;;;;;;1.90;1.17;;;14.30;99.90;;;;;;5113529;28;20040;-83
2021/08/12 02:52:07;;;;;;;1.15;0.88;;;14.30;99.90;;;;;;5129868;28;20381;-83
2021/08/12 02:54:35;;;;;;;1.15;0.68;;;14.30;99.90;;;;;;5113475;28;20459;-83
2021/08/12 02:57:03;;;;;;;1.45;0.90;;;14.30;99.90;;;;;;5113061;28;20135;-83
2021/08/12 02:59:30;;;;;;;1.80;1.10;;;14.30;99.90;;;;;;5113597;28;20476;-82
2021/08/12 03:01:57;;;;;;;1.58;0.80;;;14.30;99.90;;;;;;5096665;28;20036;-83
2021/08/12 03:04:24;;;;;;;1.17;0.65;;;14.20;99.90;;;;;;5096287;28;20058;-83
2021/08/12 03:06:57;;;;;;;0.52;0.43;;;14.30;99.90;;;;;;5096564;28;20048;-84
2021/08/12 03:09:26;;;;;;;0.85;0.60;;;14.30;99.90;;;;;;5130855;28;20467;-83
2021/08/12 03:11:55;;;;;;;1.10;0.63;;;14.30;99.90;;;;;;5130089;28;20459;-83
2021/08/12 03:14:22;;;;;;;0.82;0.50;;;14.30;99.90;;;;;;5129470;28;20448;-83
2021/08/12 03:16:49;;;;;;;0.60;0.40;;;14.30;99.90;;;;;;5113183;28;20135;-83
2021/08/12 03:19:16;;;;;;;0.88;0.45;;;14.30;99.90;;;;;;5129456;28;20044;-83
2021/08/12 03:22:03;;;;;;;0.50;0.40;;;14.20;99.90;;;;;;5112999;28;20043;-83
2021/08/12 03:24:37;;;;;;;0.60;0.47;;;14.20;99.90;;;;;;5129693;28;20036;-83
2021/08/12 03:27:04;;;;;;;0.65;0.38;;;14.20;99.90;;;;;;5129205;28;20064;-83
2021/08/12 03:29:31;;;;;;;0.43;0.30;;;14.30;99.90;;;;;;5112886;28;20044;-83
2021/08/12 03:31:58;;;;;;;0.17;0.17;;;14.30;99.90;;;;;;5112901;28;20032;-84
2021/08/12 03:34:25;;;;;;;0.30;0.20;;;14.30;99.90;;;;;;5112331;28;20032;-84
2021/08/12 03:36:51;;;;;;;1.13;0.63;;;14.30;99.90;;;;;;5112657;28;20488;-84
2021/08/12 03:39:18;;;;;;;0.95;0.52;;;14.30;99.90;;;;;;5095520;28;20092;-84
2021/08/12 03:41:45;;;;;;;0.40;0.20;;;14.30;99.90;;;;;;5112664;28;20055;-84
2021/08/12 03:44:12;;;;;;;0.20;0.17;;;14.30;99.90;;;;;;5112131;28;20100;-84
2021/08/12 03:46:38;;;;;;;0.15;0.15;;;14.30;99.90;;;;;;5112499;28;20472;-83
2021/08/12 03:49:06;;;;;;;0.45;0.25;;;14.30;99.90;;;;;;5112158;28;20217;-84
2021/08/12 03:51:33;;;;;;;0.63;0.28;;;14.30;99.90;;;;;;5111241;28;20115;-84
2021/08/12 03:54:00;;;;;;;0.45;0.35;;;14.30;99.90;;;;;;5112017;28;20047;-83
2021/08/12 03:56:27;;;;;;;0.28;0.28;;;14.30;99.90;;;;;;5111636;28;20117;-83
2021/08/12 03:58:53;;;;;;;0.70;0.40;;;14.30;99.90;;;;;;5111924;28;20063;-84
2021/08/12 04:01:20;;;;;;;0.77;0.30;;;14.30;99.90;;;;;;5128260;28;20032;-84
2021/08/12 04:03:49;;;;;;;0.88;0.47;;;14.30;99.90;;;;;;5095791;28;20039;-83
2021/08/12 04:06:17;;;;;;;1.02;0.38;;;14.30;99.90;;;;;;5094934;28;20111;-83
2021/08/12 04:08:44;;;;;;;0.55;0.32;;;14.30;99.90;;;;;;5111826;28;20043;-83
2021/08/12 04:11:10;;;;;;;0.50;0.30;;;14.30;99.90;;;;;;5112124;28;20597;-83
2021/08/12 04:13:37;;;;;;;1.58;0.75;;;14.30;99.90;;;;;;5112210;28;20040;-82
2021/08/12 04:16:04;;;;;;;0.60;0.40;;;14.30;99.90;;;;;;5129052;28;20119;-84
2021/08/12 04:18:31;;;;;;;0.17;0.10;;;14.30;99.90;;;;;;5111309;28;20032;-83
2021/08/12 04:20:58;;;;;;;0.35;0.30;;;14.30;99.90;;;;;;5095216;28;20139;-83
2021/08/12 04:23:25;;;;;;;0.45;0.28;;;14.30;99.90;;;;;;5111492;28;20040;-84
2021/08/12 04:25:53;;;;;;;0.20;0.20;;;14.40;99.90;;;;;;5128859;28;20036;-83
2021/08/12 04:28:21;;;;;;;0.30;0.20;;;14.40;99.90;;;;;;5128053;28;20034;-84
2021/08/12 04:30:51;;;;;;;1.15;0.50;;;14.40;99.90;;;;;;5128380;28;20044;-84
2021/08/12 04:33:18;;;;;;;0.32;0.20;;;14.40;99.90;;;;;;5095090;28;20046;-84
2021/08/12 04:35:44;;;;;;;0.68;0.32;;;14.40;99.90;;;;;;5111530;28;20460;-83
2021/08/12 04:38:12;;;;;;;0.17;0.17;;;14.40;99.90;;;;;;5095064;28;20093;-84
2021/08/12 04:40:39;;;;;;;0.30;0.20;;;14.50;99.90;;;;;;5078495;28;20047;-84
2021/08/12 04:43:06;;;;;;;0.32;0.25;;;14.50;99.90;;;;;;5111816;28;20101;-84
2021/08/12 04:45:35;;;;;;;0.38;0.20;;;14.50;99.90;;;;;;5095095;28;20047;-83
2021/08/12 04:48:03;;;;;;;0.10;0.03;;;14.50;99.90;;;;;;5095125;28;20040;-83
2021/08/12 04:50:34;;;;;;;0.00;0.00;;;14.50;99.90;;;;;;5094675;28;20043;-84
2021/08/12 04:53:00;;;;;;;0.30;0.30;;;14.50;99.90;;;;;;5111517;28;20028;-83
2021/08/12 04:55:27;;;;;;;0.25;0.20;;;14.50;99.90;;;;;;5110753;28;20040;-84
2021/08/12 04:57:57;;;;;;;0.28;0.22;;;14.50;99.90;;;;;;5111404;28;20040;-84
2021/08/12 05:00:24;;;;;;;0.25;0.25;;;14.50;99.90;;;;;;5127471;28;20069;-84
2021/08/12 05:02:52;;;;;;;0.22;0.20;;;14.50;99.90;;;;;;5127438;28;20142;-84
2021/08/12 05:05:19;;;;;;;0.00;0.00;;;14.50;99.90;;;;;;5077902;28;20139;-84
2021/08/12 05:07:46;;;;;;;0.20;0.17;;;14.50;99.90;;;;;;5110743;28;20126;-83
2021/08/12 05:10:12;;;;;;;0.17;0.13;;;14.50;99.90;;;;;;5132871;28;20105;-83
2021/08/12 05:12:39;;;;;;;0.25;0.25;;;14.50;99.90;;;;;;5099234;28;20036;-83
2021/08/12 05:15:07;;;;;;;0.43;0.28;;;14.50;99.90;;;;;;5109364;28;20131;-83
2021/08/12 05:17:34;;;;;;;0.52;0.40;;;14.60;99.90;;;;;;5144180;28;20040;-84
2021/08/12 05:20:01;;;;;;;0.30;0.22;;;14.70;99.90;;;;;;5140582;28;20036;-84
2021/08/12 05:22:28;;;;;;;0.38;0.30;;;14.70;99.90;;;;;;5130728;28;20115;-84
2021/08/12 05:24:55;;;;;;;0.70;0.43;;;14.80;99.90;;;;;;5147774;28;20118;-83
2021/08/12 05:27:21;;;;;;;0.22;0.20;;;14.80;99.90;;;;;;5108076;28;20039;-84
2021/08/12 05:29:48;;;;;;;2.03;0.47;;;14.90;99.90;;;;;;5134036;28;20043;-83
2021/08/12 05:32:15;;;;;;;0.20;0.20;;;15.00;99.90;;;;;;5093805;28;20064;-83
2021/08/12 05:34:43;;;;;;;1.33;0.80;;;15.00;99.90;;;;;;5112854;28;20028;-83
2021/08/12 05:37:09;;;;;;;0.70;0.45;;;15.10;99.90;;;;;;5103461;28;20092;-83
2021/08/12 05:39:36;;;;;;;0.30;0.30;;;15.10;99.90;;;;;;5113447;28;20043;-83
2021/08/12 05:42:03;;;;;;;0.43;0.40;;;15.20;99.90;;;;;;5130664;28;20063;-83
2021/08/12 05:44:31;;;;;;;0.13;0.13;;;15.20;99.90;;;;;;5113716;28;20172;-83
2021/08/12 05:46:58;;;;;;;0.85;0.52;;;15.30;99.90;;;;;;5147876;28;20114;-84
2021/08/12 05:49:25;;;;;;;0.25;0.17;;;15.30;99.90;;;;;;5130695;28;20042;-83
2021/08/12 05:51:52;;;;;;;0.25;0.17;;;15.30;99.90;;;;;;5130715;28;20042;-83
2021/08/12 05:54:21;;;;;;;0.20;0.20;;;15.30;99.90;;;;;;5130391;28;20043;-83
2021/08/12 05:56:48;;;;;;;0.00;0.00;;;15.30;99.90;;;;;;5147344;28;20042;-83
2021/08/12 05:59:15;;;;;;;0.93;0.47;;;15.30;99.90;;;;;;5127300;28;20040;-83
2021/08/12 06:01:42;;;;;;;0.30;0.30;;;15.30;99.90;;;;;;5143425;28;20036;-83
2021/08/12 06:04:08;;;;;;;0.95;0.57;;;15.20;99.90;;;;;;5126963;28;20040;-78
2021/08/12 06:06:37;;;;;;;0.55;0.32;;;15.30;99.90;;;;;;5126125;28;20395;-79
2021/08/12 06:09:04;;;;;;;0.43;0.30;;;15.30;99.90;;;;;;5126831;28;20465;-79
2021/08/12 06:11:35;;;;;;;0.63;0.32;;;15.30;99.90;;;;;;5128367;28;20081;-80
2021/08/12 06:14:02;;;;;;;1.45;0.63;;;15.30;99.90;;;;;;5143308;28;20425;-80
2021/08/12 06:16:31;;;;;;;0.47;0.30;;;15.30;99.90;;;;;;5125634;28;20128;-80
2021/08/12 06:18:58;;;;;;;0.85;0.47;;;15.40;99.90;;;;;;5134634;28;20055;-80
2021/08/12 06:21:25;;;;;;;1.25;0.50;;;15.50;99.90;;;;;;5117788;28;20062;-80
2021/08/12 06:23:52;;;;;;;1.08;0.60;;;15.60;99.90;;;;;;5133878;28;20044;-80
2021/08/12 06:26:18;;;;;;;0.50;0.30;;;15.60;99.90;;;;;;5152388;28;20039;-80
2021/08/12 06:28:46;;;;;;;0.28;0.28;;;15.70;99.90;;;;;;5150989;28;20035;-81
2021/08/12 06:31:13;;;;;;;0.68;0.47;;;15.80;99.90;;;;;;5134589;28;20114;-81
2021/08/12 06:33:40;;;;;;;0.68;0.30;;;15.80;99.90;;;;;;5133794;28;20032;-80
2021/08/12 06:36:07;;;;;;;0.40;0.40;;;16.00;99.90;;;;;;5117390;28;20533;-80
2021/08/12 06:38:38;;;;;;;0.88;0.50;;;16.00;99.90;;;;;;5150940;28;20036;-80
2021/08/12 06:41:05;;;;;;;0.47;0.47;;;16.10;99.90;;;;;;5117243;28;20096;-80
2021/08/12 06:43:32;;;;;;;1.02;0.30;;;16.20;99.90;;;;;;5133612;28;20043;-81
2021/08/12 06:45:58;;;;;;;0.60;0.40;;;16.30;99.90;;;;;;5134384;28;20126;-80
2021/08/12 06:48:26;;;;;;;0.50;0.38;;;16.40;99.90;;;;;;5117514;28;20042;-80
2021/08/12 06:50:53;;;;;;;0.20;0.20;;;16.40;99.90;;;;;;5110494;28;20119;-81
2021/08/12 06:53:20;;;;;;;1.15;0.68;;;16.50;99.90;;;;;;5098331;28;20044;-72
2021/08/12 06:55:48;;;;;;;1.10;0.65;;;16.60;99.90;;;;;;5133311;28;20453;-81
2021/08/12 06:58:15;;;;;;;0.57;0.40;;;16.70;99.90;;;;;;5113361;28;20040;-81
2021/08/12 07:00:42;;;;;;;0.80;0.43;;;16.70;99.90;;;;;;5112991;28;20445;-82
2021/08/12 07:03:09;;;;;;;0.65;0.45;;;16.80;99.90;;;;;;5112844;28;20064;-70
2021/08/12 07:05:35;;;;;;;1.02;0.50;;;16.80;99.90;;;;;;5128987;28;20479;-70
2021/08/12 07:08:03;;;;;;;0.85;0.50;;;16.90;99.90;;;;;;5129507;28;20080;-73
2021/08/12 07:10:31;;;;;;;0.80;0.40;;;17.00;99.90;;;;;;5129641;28;20036;-71
2021/08/12 07:12:58;;;;;;;0.95;0.52;;;17.10;99.90;;;;;;5134596;28;20039;-70
2021/08/12 07:15:25;;;;;;;0.77;0.40;;;17.30;99.90;;;;;;5133384;28;20039;-71
2021/08/12 07:17:52;;;;;;;1.38;0.68;;;17.30;99.90;;;;;;5143788;28;20043;-71
2021/08/12 07:20:19;;;;;;;0.82;0.43;;;17.40;99.90;;;;;;5123741;28;20027;-71
2021/08/12 07:22:46;;;;;;;0.30;0.20;;;17.40;99.90;;;;;;5137096;28;20035;-81
2021/08/12 07:25:12;;;;;;;0.28;0.22;;;17.50;99.90;;;;;;5116468;28;20040;-81
2021/08/12 07:27:39;;;;;;;0.50;0.40;;;17.60;99.90;;;;;;5114844;28;20119;-81
2021/08/12 07:30:07;;;;;;;0.77;0.60;;;17.70;99.90;;;;;;5113011;28;20040;-80
2021/08/12 07:32:34;;;;;;;0.30;0.30;;;17.80;99.90;;;;;;5133177;28;20035;-80
2021/08/12 07:35:00;;;;;;;1.55;0.77;;;18.00;99.90;;;;;;5115596;28;20069;-81
2021/08/12 07:37:27;;;;;;;0.63;0.50;;;18.10;99.90;;;;;;5133036;28;20539;-81
2021/08/12 07:39:54;;;;;;;0.30;0.30;;;18.20;99.90;;;;;;5132503;28;20387;-80
2021/08/12 07:42:21;;;;;;;1.65;0.90;;;18.30;99.90;;;;;;5132883;28;20088;-81
2021/08/12 07:44:48;;;;;;;0.63;0.52;;;18.30;99.90;;;;;;5115757;28;20044;-80
2021/08/12 07:47:15;;;;;;;1.20;0.80;;;18.40;99.90;;;;;;5149829;28;20041;-81
2021/08/12 07:49:42;;;;;;;0.52;0.43;;;18.50;99.90;;;;;;5115635;28;20031;-82
2021/08/12 07:52:09;;;;;;;1.95;1.10;;;18.60;99.90;;;;;;5132969;28;20084;-81
2021/08/12 07:54:37;;;;;;;0.40;0.30;;;18.70;99.90;;;;;;5132644;28;20122;-81
2021/08/12 07:57:05;;;;;;;0.65;0.38;;;18.80;99.90;;;;;;5149132;28;20119;-81
2021/08/12 07:59:32;;;;;;;0.20;0.20;;;18.70;99.90;;;;;;5132769;28;20472;-81
2021/08/12 08:01:59;;;;;;;1.17;0.45;;;18.70;99.90;;;;;;5132286;28;20040;-81
2021/08/12 08:04:27;;;;;;;0.50;0.43;;;18.70;99.90;;;;;;5115799;28;20074;-81
2021/08/12 08:06:54;;;;;;;0.70;0.47;;;18.90;99.90;;;;;;5132095;28;20113;-81
2021/08/12 08:09:21;;;;;;;0.47;0.30;;;18.90;99.90;;;;;;5115885;28;20043;-80
2021/08/12 08:11:47;;;;;;;0.60;0.30;;;19.00;99.90;;;;;;5115269;28;20047;-81
2021/08/12 08:14:14;;;;;;;0.40;0.30;;;19.10;99.90;;;;;;5115504;28;20039;-80
2021/08/12 08:16:41;;;;;;;0.28;0.28;;;19.10;99.90;;;;;;5132314;28;20039;-81
2021/08/12 08:19:08;;;;;;;0.80;0.50;;;19.20;99.90;;;;;;5131951;28;20074;-80
2021/08/12 08:21:35;;;;;;;0.25;0.25;;;19.20;99.90;;;;;;5115465;28;20035;-81
2021/08/12 08:24:02;;;;;;;0.32;0.30;;;19.30;99.90;;;;;;5115104;28;20100;-81
2021/08/12 08:26:29;;;;;;;1.08;0.30;;;19.40;99.90;;;;;;5132096;28;20031;-81
2021/08/12 08:28:56;;;;;;;0.63;0.45;;;19.50;99.90;;;;;;5110757;28;20039;-80
2021/08/12 08:31:22;;;;;;;0.20;0.20;;;19.70;99.90;;;;;;5111524;28;20036;-80
2021/08/12 08:33:49;;;;;;;0.35;0.30;;;19.80;99.90;;;;;;5111064;28;20040;-80
2021/08/12 08:36:16;;;;;;;0.40;0.40;;;20.00;99.90;;;;;;5111541;28;20119;-81
2021/08/12 08:38:43;;;;;;;0.52;0.40;;;20.10;99.90;;;;;;5111521;28;20111;-81
2021/08/12 08:41:10;;;;;;;0.52;0.38;;;20.20;99.90;;;;;;5111043;28;20119;-80
2021/08/12 08:43:38;;;;;;;0.95;0.60;;;20.20;99.90;;;;;;5111133;28;20043;-71
2021/08/12 08:46:06;;;;;;;0.17;0.17;;;20.30;99.90;;;;;;5131911;28;20035;-70
2021/08/12 08:48:34;;;;;;;1.15;0.60;;;20.40;99.90;;;;;;5118993;28;20491;-72
2021/08/12 08:51:02;;;;;;;0.90;0.50;;;20.50;99.90;;;;;;5118917;28;20038;-73
2021/08/12 08:53:31;;;;;;;0.88;0.57;;;20.60;99.90;;;;;;5128426;28;20040;-71
2021/08/12 08:55:58;;;;;;;0.60;0.50;;;20.60;99.90;;;;;;5127310;28;20119;-81
2021/08/12 08:58:27;;;;;;;1.13;0.52;;;20.70;99.90;;;;;;5110994;28;20135;-80
2021/08/12 09:00:53;;;;;;;0.57;0.35;;;20.80;99.90;;;;;;5128634;28;20479;-80
2021/08/12 09:03:20;;;;;;;0.90;0.60;;;21.00;99.90;;;;;;5131300;28;20051;-80
2021/08/12 09:05:47;;;;;;;1.05;0.50;;;21.10;99.90;;;;;;5103442;28;20040;-80
2021/08/12 09:08:14;;;;;;;0.85;0.55;;;21.20;99.90;;;;;;5110206;28;20044;-79
2021/08/12 09:10:41;;;;;;;1.70;0.90;;;21.30;99.90;;;;;;5094109;28;20423;-80
2021/08/12 09:13:08;;;;;;;0.98;0.50;;;21.30;99.90;;;;;;5110242;28;20111;-80
2021/08/12 09:15:43;;;;;;;1.05;0.60;;;21.40;99.90;;;;;;5110771;28;20040;-80
2021/08/12 09:18:22;;;;;;;1.13;0.70;;;21.60;99.90;;;;;;5127388;28;20036;-80
2021/08/12 09:20:51;;;;;;;1.17;0.55;;;21.60;99.90;;;;;;5128734;28;20064;-80
2021/08/12 09:23:23;;;;;;;0.55;0.32;;;21.70;99.90;;;;;;5128153;28;20115;-80
2021/08/12 09:25:50;;;;;;;0.75;0.50;;;21.70;99.90;;;;;;5128454;28;20036;-79
2021/08/12 09:28:22;;;;;;;0.90;0.57;;;21.80;99.90;;;;;;5110105;28;20046;-80
2021/08/12 09:31:01;;;;;;;1.10;0.52;;;21.80;99.90;;;;;;5110584;28;20078;-80
2021/08/12 09:33:31;;;;;;;0.90;0.60;;;22.00;99.90;;;;;;5126992;28;20111;-80
2021/08/12 09:35:58;;;;;;;0.90;0.47;;;22.00;99.90;;;;;;5126759;28;20105;-78
2021/08/12 09:38:25;;;;;;;1.02;0.50;;;22.10;99.90;;;;;;5128288;28;20059;-78
2021/08/12 09:41:02;;;;;;;0.85;0.45;;;22.20;99.90;;;;;;5128264;28;20039;-78
2021/08/12 09:43:36;;;;;;;0.32;0.30;;;22.30;99.90;;;;;;5127099;28;20035;-79
2021/08/12 09:46:16;;;;;;;1.67;0.35;;;22.40;99.90;;;;;;5110214;28;20400;-85
2021/08/12 09:48:57;;;;;;;0.30;0.30;;;22.40;99.90;;;;;;5109760;28;20040;-85
2021/08/12 09:51:30;;;;;;;0.77;0.45;;;22.40;99.90;;;;;;5132729;28;20042;-88
2021/08/12 09:54:04;;;;;;;0.35;0.35;;;22.50;99.90;;;;;;5147300;28;20039;-78
2021/08/12 09:56:31;;;;;;;0.45;0.30;;;22.50;99.90;;;;;;5133861;28;20484;-78
2021/08/12 09:59:08;;;;;;;0.68;0.40;;;22.70;99.90;;;;;;5109628;28;20043;-77
2021/08/12 10:01:35;;;;;;;0.85;0.50;;;22.80;99.90;;;;;;5127828;28;20115;-77
2021/08/12 10:04:22;;;;;;;0.28;0.28;;;22.80;99.90;;;;;;5109296;28;20115;-75
2021/08/12 10:06:49;;;;;;;0.82;0.50;;;22.90;99.90;;;;;;5126259;28;20131;-74
2021/08/12 10:09:17;;;;;;;0.80;0.35;;;22.90;99.90;;;;;;5126087;28;20548;-77
2021/08/12 10:11:44;;;;;;;0.30;0.30;;;22.90;99.90;;;;;;5126483;28;20119;-70
2021/08/12 10:14:10;;;;;;;0.75;0.50;;;23.00;99.90;;;;;;5126865;28;20130;-70
2021/08/12 10:16:40;;;;;;;0.55;0.45;;;23.00;99.90;;;;;;5127483;28;20119;-69
2021/08/12 10:19:12;;;;;;;0.47;0.35;;;23.10;99.90;;;;;;5126839;28;20470;-70
2021/08/12 10:21:40;;;;;;;0.90;0.52;;;23.10;99.90;;;;;;5127497;28;20168;-70
2021/08/12 10:24:07;;;;;;;0.85;0.40;;;23.20;99.90;;;;;;5126917;28;20509;-70
2021/08/12 10:26:35;;;;;;;0.80;0.47;;;23.30;99.90;;;;;;5126332;28;20040;-68
2021/08/12 10:29:13;;;;;;;0.68;0.50;;;23.40;99.90;;;;;;5126771;28;20063;-68
2021/08/12 10:31:45;;;;;;;0.35;0.30;;;23.70;99.90;;;;;;5126188;28;20495;-68
2021/08/12 10:34:13;;;;;;;0.40;0.40;;;23.70;99.90;;;;;;5108706;28;20115;-68
2021/08/12 10:36:40;;;;;;;0.55;0.40;;;23.60;99.90;;;;;;5126107;28;20036;-68
2021/08/12 10:39:07;;;;;;;0.52;0.40;;;23.70;99.90;;;;;;5133672;28;20063;-68
2021/08/12 10:41:39;;;;;;;0.30;0.30;;;23.70;99.90;;;;;;5136760;28;20530;-68
2021/08/12 10:44:06;;;;;;;0.82;0.50;;;23.80;99.90;;;;;;5137387;28;20039;-69
2021/08/12 10:46:36;;;;;;;0.35;0.30;;;23.80;99.90;;;;;;5135192;28;20053;-68
2021/08/12 10:49:23;;;;;;;0.93;0.50;;;23.90;99.90;;;;;;5135641;28;20472;-68
2021/08/12 10:51:59;;;;;;;0.57;0.40;;;23.90;99.90;;;;;;5138182;28;20396;-68
2021/08/12 10:54:27;;;;;;;0.40;0.38;;;24.00;99.90;;;;;;5138824;28;20465;-70
2021/08/12 10:57:12;;;;;;;0.57;0.50;;;24.10;99.90;;;;;;5136225;28;20042;-69
2021/08/12 10:59:41;;;;;;;0.38;0.38;;;24.10;99.90;;;;;;5140406;28;20028;-69
2021/08/12 11:02:30;;;;;;;0.55;0.30;;;24.20;99.90;;;;;;5134036;28;20056;-71
2021/08/12 11:04:59;;;;;;;0.70;0.40;;;24.30;99.90;;;;;;5138314;28;20430;-69
2021/08/12 11:07:38;;;;;;;0.40;0.35;;;24.40;99.90;;;;;;5140689;28;20051;-70
2021/08/12 11:10:10;;;;;;;1.25;0.57;;;24.50;99.90;;;;;;5151247;28;20040;-69
2021/08/12 11:12:52;;;;;;;3.40;0.50;;;24.40;99.90;;;;;;5133848;28;20046;-69
2021/08/12 11:15:37;;;;;;;0.40;0.40;;;24.40;99.90;;;;;;5150531;28;20032;-70
2021/08/12 11:18:08;;;;;;;0.57;0.43;;;24.50;99.90;;;;;;5146666;28;20127;-69
2021/08/12 11:20:41;;;;;;;0.68;0.30;;;24.60;99.90;;;;;;5151257;28;20039;-69
2021/08/12 11:23:20;;;;;;;1.05;0.45;;;24.70;99.90;;;;;;5151175;27;20145;-70
2021/08/12 11:25:59;;;;;;;0.60;0.40;;;24.90;99.90;;;;;;5151351;28;20112;-70
2021/08/12 11:28:41;;;;;;;0.47;0.40;;;24.80;99.90;;;;;;5141918;28;20036;-68
2021/08/12 11:31:20;;;;;;;1.02;0.60;;;24.80;99.90;;;;;;5138969;28;20035;-70
2021/08/12 11:33:48;;;;;;;0.77;0.50;;;24.90;99.90;;;;;;5130249;28;20040;-70
2021/08/12 11:36:22;;;;;;;0.90;0.50;;;24.90;99.90;;;;;;5128490;28;20044;-70
2021/08/12 11:38:56;;;;;;;0.93;0.40;;;24.90;99.90;;;;;;5128991;28;20047;-70
2021/08/12 11:41:25;;;;;;;0.32;0.30;;;24.90;99.90;;;;;;5129942;28;20411;-70
2021/08/12 11:43:53;;;;;;;0.52;0.43;;;24.90;99.90;;;;;;5130068;28;20040;-69
2021/08/12 11:46:20;;;;;;;0.82;0.40;;;25.00;99.90;;;;;;5128284;28;20434;-69
2021/08/12 11:48:49;;;;;;;1.45;0.60;;;25.10;99.90;;;;;;5112341;28;20044;-70
2021/08/12 11:51:17;;;;;;;1.02;0.47;;;25.10;99.90;;;;;;5138709;28;20032;-70
2021/08/12 11:53:45;;;;;;;0.80;0.50;;;25.20;99.90;;;;;;5139590;28;20023;-69
2021/08/12 11:56:19;;;;;;;1.10;0.47;;;25.00;99.90;;;;;;5135596;28;20541;-69
2021/08/12 11:58:49;;;;;;;0.40;0.40;;;25.00;99.90;;;;;;5140459;28;20039;-71
2021/08/12 12:01:24;;;;;;;0.77;0.47;;;25.00;99.90;;;;;;5120433;28;20631;-72
2021/08/12 12:04:02;;;;;;;1.40;0.70;;;25.10;99.90;;;;;;5129178;28;20048;-71
2021/08/12 12:06:29;;;;;;;0.85;0.47;;;25.10;99.90;;;;;;5128961;28;20066;-72
2021/08/12 12:08:56;;;;;;;1.15;0.57;;;25.30;99.90;;;;;;5128402;28;20119;-70
2021/08/12 12:11:23;;;;;;;0.77;0.35;;;25.40;99.90;;;;;;5128058;28;20149;-70
2021/08/12 12:13:49;;;;;;;1.15;0.57;;;25.40;99.90;;;;;;5128150;28;20043;-70
2021/08/12 12:16:19;;;;;;;0.80;0.60;;;25.30;99.90;;;;;;5128929;28;20070;-75
2021/08/12 12:18:46;;;;;;;0.98;0.50;;;25.20;99.90;;;;;;5128433;28;20040;-70
2021/08/12 12:21:16;;;;;;;0.47;0.35;;;24.90;99.90;;;;;;5128305;28;20427;-70
2021/08/12 12:23:47;;;;;;;0.75;0.38;;;24.80;99.90;;;;;;5128330;28;20126;-71
2021/08/12 12:26:24;;;;;;;0.75;0.50;;;24.80;99.90;;;;;;5128276;28;20043;-70
2021/08/12 12:28:51;;;;;;;0.57;0.30;;;24.60;99.90;;;;;;5129236;28;20035;-71
2021/08/12 12:31:20;;;;;;;1.30;0.45;;;24.60;99.90;;;;;;5127433;28;20032;-71
2021/08/12 12:34:01;;;;;;;0.47;0.30;;;24.80;99.90;;;;;;5129025;28;20137;-71
2021/08/12 12:36:32;;;;;;;0.93;0.50;;;24.90;99.90;;;;;;5127471;28;20043;-70
2021/08/12 12:38:59;;;;;;;1.80;0.60;;;24.70;99.90;;;;;;5134530;28;20036;-70
2021/08/12 12:41:26;;;;;;;0.50;0.40;;;24.70;99.90;;;;;;5128391;28;20036;-71
2021/08/12 12:44:11;;;;;;;0.90;0.50;;;24.80;99.90;;;;;;5129097;28;20040;-70
2021/08/12 12:46:38;;;;;;;0.38;0.30;;;25.00;99.90;;;;;;5128238;28;20396;-71
2021/08/12 12:49:29;;;;;;;0.60;0.45;;;25.20;99.90;;;;;;5139377;28;20047;-70
2021/08/12 12:52:07;;;;;;;0.65;0.50;;;25.20;99.90;;;;;;5139696;28;20042;-71
2021/08/12 12:54:35;;;;;;;0.43;0.40;;;25.20;99.90;;;;;;5145067;28;20035;-69
2021/08/12 12:57:02;;;;;;;1.08;0.60;;;25.20;99.90;;;;;;5138394;28;20085;-69